Список аэропортов
Фактическая погода:

21 апреля, 15:00
Температура: +15°C (+14.5*)
Ветер: западный 3 м/с
Давление: *770 мм
разорв. обл.
990 м
Время (МСК)Темп. СВетерВлажностьДавлениеОблачностьОсадки
15:00+13З, 3 м/с41%1028 гПаясно
16:00+13З, 3 м/с41%1028 гПамалооблачно
17:00+13З, 2 м/с41%1027 гПаясно
18:00+13З, 3 м/с42%1027 гПамалооблачно
19:00+12З, 2 м/с46%1027 гПамалооблачно
20:00+8З, 1 м/с62%1027 гПаясно
21:00+6ЮЗ, 1 м/с74%1028 гПаясно
22:00+4ЮЗ, 1 м/с81%1028 гПаясно
23:00+3ЮЗ, 2 м/с88%1028 гПамалооблачно
22 апреля
00:00+2Ю, 2 м/с93%1028 гПас прояснениями
01:00+1Ю, 2 м/с96%1028 гПас прояснениями
02:000Ю, 2 м/с97%1028 гПас прояснениями
03:000Ю, 2 м/с96%1028 гПас прояснениями
04:000ЮЗ, 2 м/с96%1028 гПас прояснениями
05:000ЮЗ, 2 м/с97%1028 гПаоблачно
06:000ЮЗ, 2 м/с96%1028 гПаоблачно
07:00+2ЮЗ, 2 м/с88%1028 гПаоблачно
08:00+6ЮЗ, 2 м/с70%1028 гПаоблачно
09:00+10З, 4 м/с55%1027 гПаоблачно
10:00+12З, 6 м/с43%1028 гПас прояснениями
11:00+12З, 6 м/с40%1027 гПамалооблачно
12:00+13З, 5 м/с38%1027 гПас прояснениями
13:00+14З, 6 м/с36%1026 гПаясно
14:00+14ЮЗ, 6 м/с36%1026 гПас прояснениями
15:00+14ЮЗ, 6 м/с35%1025 гПас прояснениями
16:00+14ЮЗ, 6 м/с35%1025 гПаоблачно
17:00+14ЮЗ, 6 м/с37%1024 гПаоблачно
18:00+13ЮЗ, 6 м/с40%1024 гПаоблачно
19:00+12ЮЗ, 4 м/с43%1024 гПаоблачно
20:00+11ЮЗ, 4 м/с48%1024 гПаоблачно
21:00+10З, 4 м/с52%1024 гПаоблачносл. дождь
22:00+10ЮЗ, 3 м/с55%1024 гПаоблачно
23:00+10ЮЗ, 4 м/с57%1023 гПаоблачно
23 апреля
00:00+9ЮЗ, 5 м/с62%1022 гПаоблачносл. дождь
01:00+8ЮЗ, 4 м/с67%1022 гПаоблачнодождь
02:00+8ЮЗ, 4 м/с77%1022 гПаоблачнодождь
03:00+7З, 4 м/с82%1022 гПаоблачнодождь
04:00+7З, 3 м/с86%1022 гПаоблачнодождь
05:00+6ЮЗ, 3 м/с88%1022 гПаоблачнодождь
06:00+6ЮЗ, 3 м/с88%1022 гПаоблачнодождь
07:00+7ЮЗ, 4 м/с88%1021 гПаоблачносл. дождь
08:00+8З, 4 м/с83%1021 гПаоблачносл. дождь
09:00+8З, 4 м/с80%1021 гПаоблачносл. дождь
10:00+9З, 4 м/с81%1021 гПаоблачносл. дождь
11:00+9З, 4 м/с81%1020 гПаоблачносл. дождь
12:00+10З, 5 м/с80%1020 гПаоблачно
13:00+10З, 5 м/с75%1020 гПаоблачно
14:00+12З, 6 м/с66%1020 гПаоблачно
15:00+12З, 5 м/с66%1019 гПаоблачно